sensor_id;sensor_type;location;lat;lon;timestamp;P1;durP1;ratioP1;P2;durP2;ratioP2
66272;SDS011;58450;52.150;4.466;2023-06-24T00:02:26;3.47;;;2.25;;
66272;SDS011;58450;52.150;4.466;2023-06-24T00:04:54;3.88;;;2.35;;
66272;SDS011;58450;52.150;4.466;2023-06-24T00:07:26;3.28;;;2.22;;
66272;SDS011;58450;52.150;4.466;2023-06-24T00:09:53;3.95;;;2.35;;
66272;SDS011;58450;52.150;4.466;2023-06-24T00:12:21;3.83;;;2.30;;
66272;SDS011;58450;52.150;4.466;2023-06-24T00:14:49;2.53;;;1.90;;
66272;SDS011;58450;52.150;4.466;2023-06-24T00:17:19;2.65;;;2.00;;
66272;SDS011;58450;52.150;4.466;2023-06-24T00:19:46;3.45;;;2.38;;
66272;SDS011;58450;52.150;4.466;2023-06-24T00:22:14;4.47;;;2.20;;
66272;SDS011;58450;52.150;4.466;2023-06-24T00:24:41;3.70;;;2.42;;
66272;SDS011;58450;52.150;4.466;2023-06-24T00:27:09;3.53;;;2.35;;
66272;SDS011;58450;52.150;4.466;2023-06-24T00:29:37;3.55;;;2.40;;
66272;SDS011;58450;52.150;4.466;2023-06-24T00:32:05;4.60;;;2.47;;
66272;SDS011;58450;52.150;4.466;2023-06-24T00:34:35;4.03;;;2.45;;
66272;SDS011;58450;52.150;4.466;2023-06-24T00:37:03;3.05;;;2.30;;
66272;SDS011;58450;52.150;4.466;2023-06-24T00:39:31;4.38;;;2.33;;
66272;SDS011;58450;52.150;4.466;2023-06-24T00:41:59;3.40;;;2.35;;
66272;SDS011;58450;52.150;4.466;2023-06-24T00:44:27;3.90;;;2.40;;
66272;SDS011;58450;52.150;4.466;2023-06-24T00:46:54;3.55;;;2.13;;
66272;SDS011;58450;52.150;4.466;2023-06-24T00:49:22;3.20;;;2.10;;
66272;SDS011;58450;52.150;4.466;2023-06-24T00:51:51;3.58;;;2.10;;
66272;SDS011;58450;52.150;4.466;2023-06-24T00:54:19;4.10;;;2.33;;
66272;SDS011;58450;52.150;4.466;2023-06-24T00:56:46;3.55;;;2.50;;
66272;SDS011;58450;52.150;4.466;2023-06-24T00:59:15;3.85;;;2.13;;
66272;SDS011;58450;52.150;4.466;2023-06-24T01:01:44;3.33;;;2.30;;
66272;SDS011;58450;52.150;4.466;2023-06-24T01:04:13;4.03;;;2.58;;
66272;SDS011;58450;52.150;4.466;2023-06-24T01:06:42;4.30;;;2.53;;
66272;SDS011;58450;52.150;4.466;2023-06-24T01:09:11;4.93;;;2.63;;
66272;SDS011;58450;52.150;4.466;2023-06-24T01:11:39;4.20;;;2.63;;
66272;SDS011;58450;52.150;4.466;2023-06-24T01:14:07;3.42;;;2.33;;
66272;SDS011;58450;52.150;4.466;2023-06-24T01:16:37;5.15;;;2.70;;
66272;SDS011;58450;52.150;4.466;2023-06-24T01:19:21;4.18;;;2.45;;
66272;SDS011;58450;52.150;4.466;2023-06-24T01:22:26;4.18;;;2.35;;
66272;SDS011;58450;52.150;4.466;2023-06-24T01:25:29;3.20;;;2.10;;
66272;SDS011;58450;52.150;4.466;2023-06-24T01:28:20;4.07;;;2.55;;
66272;SDS011;58450;52.150;4.466;2023-06-24T01:31:06;4.82;;;2.20;;
66272;SDS011;58450;52.150;4.466;2023-06-24T01:34:01;3.90;;;2.10;;
66272;SDS011;58450;52.150;4.466;2023-06-24T01:36:38;4.10;;;2.40;;
66272;SDS011;58450;52.150;4.466;2023-06-24T01:39:11;3.60;;;2.25;;
66272;SDS011;58450;52.150;4.466;2023-06-24T01:41:47;3.70;;;2.63;;
66272;SDS011;58450;52.150;4.466;2023-06-24T01:44:23;4.85;;;2.47;;
66272;SDS011;58450;52.150;4.466;2023-06-24T01:46:58;4.07;;;2.28;;
66272;SDS011;58450;52.150;4.466;2023-06-24T01:49:28;3.65;;;2.35;;
66272;SDS011;58450;52.150;4.466;2023-06-24T01:51:59;5.40;;;2.67;;
66272;SDS011;58450;52.150;4.466;2023-06-24T01:54:28;3.33;;;2.25;;
66272;SDS011;58450;52.150;4.466;2023-06-24T01:56:57;3.45;;;2.40;;
66272;SDS011;58450;52.150;4.466;2023-06-24T01:59:29;4.30;;;2.50;;
66272;SDS011;58450;52.150;4.466;2023-06-24T02:02:00;4.32;;;2.28;;
66272;SDS011;58450;52.150;4.466;2023-06-24T02:04:30;4.60;;;2.65;;
66272;SDS011;58450;52.150;4.466;2023-06-24T02:07:01;4.25;;;2.75;;
66272;SDS011;58450;52.150;4.466;2023-06-24T02:09:31;3.58;;;2.30;;
66272;SDS011;58450;52.150;4.466;2023-06-24T02:12:00;4.57;;;2.40;;
66272;SDS011;58450;52.150;4.466;2023-06-24T02:14:31;3.25;;;2.20;;
66272;SDS011;58450;52.150;4.466;2023-06-24T02:17:04;3.83;;;2.30;;
66272;SDS011;58450;52.150;4.466;2023-06-24T02:19:35;3.28;;;2.35;;
66272;SDS011;58450;52.150;4.466;2023-06-24T02:22:05;3.72;;;2.22;;
66272;SDS011;58450;52.150;4.466;2023-06-24T02:24:36;4.75;;;2.72;;
66272;SDS011;58450;52.150;4.466;2023-06-24T02:27:06;4.18;;;2.45;;
66272;SDS011;58450;52.150;4.466;2023-06-24T02:29:36;4.22;;;2.30;;
66272;SDS011;58450;52.150;4.466;2023-06-24T02:32:08;5.07;;;2.78;;
66272;SDS011;58450;52.150;4.466;2023-06-24T02:34:36;5.07;;;2.47;;
66272;SDS011;58450;52.150;4.466;2023-06-24T02:37:04;5.25;;;2.72;;
66272;SDS011;58450;52.150;4.466;2023-06-24T02:39:32;3.38;;;2.17;;
66272;SDS011;58450;52.150;4.466;2023-06-24T02:42:01;3.15;;;2.08;;
66272;SDS011;58450;52.150;4.466;2023-06-24T02:44:28;3.95;;;2.55;;
66272;SDS011;58450;52.150;4.466;2023-06-24T02:46:56;3.95;;;2.40;;
66272;SDS011;58450;52.150;4.466;2023-06-24T02:49:26;3.97;;;2.30;;
66272;SDS011;58450;52.150;4.466;2023-06-24T02:51:55;3.72;;;2.10;;
66272;SDS011;58450;52.150;4.466;2023-06-24T02:54:22;3.85;;;2.50;;
66272;SDS011;58450;52.150;4.466;2023-06-24T02:56:51;3.58;;;2.28;;
66272;SDS011;58450;52.150;4.466;2023-06-24T02:59:22;4.50;;;2.25;;
66272;SDS011;58450;52.150;4.466;2023-06-24T03:01:49;4.13;;;2.60;;
66272;SDS011;58450;52.150;4.466;2023-06-24T03:04:18;4.55;;;2.60;;
66272;SDS011;58450;52.150;4.466;2023-06-24T03:06:48;4.82;;;2.75;;
66272;SDS011;58450;52.150;4.466;2023-06-24T03:09:18;3.50;;;2.40;;
66272;SDS011;58450;52.150;4.466;2023-06-24T03:11:46;4.28;;;2.53;;
66272;SDS011;58450;52.150;4.466;2023-06-24T03:14:13;4.47;;;2.63;;
66272;SDS011;58450;52.150;4.466;2023-06-24T03:16:41;4.20;;;2.50;;
66272;SDS011;58450;52.150;4.466;2023-06-24T03:19:08;4.47;;;3.00;;
66272;SDS011;58450;52.150;4.466;2023-06-24T03:21:36;3.88;;;2.47;;
66272;SDS011;58450;52.150;4.466;2023-06-24T03:24:05;4.78;;;2.70;;
66272;SDS011;58450;52.150;4.466;2023-06-24T03:26:34;4.93;;;2.80;;
66272;SDS011;58450;52.150;4.466;2023-06-24T03:29:02;4.18;;;2.47;;
66272;SDS011;58450;52.150;4.466;2023-06-24T03:31:30;4.75;;;2.83;;
66272;SDS011;58450;52.150;4.466;2023-06-24T03:33:57;5.13;;;2.60;;
66272;SDS011;58450;52.150;4.466;2023-06-24T03:36:25;4.70;;;2.85;;
66272;SDS011;58450;52.150;4.466;2023-06-24T03:38:53;4.93;;;2.70;;
66272;SDS011;58450;52.150;4.466;2023-06-24T03:41:22;3.33;;;2.20;;
66272;SDS011;58450;52.150;4.466;2023-06-24T03:43:50;4.80;;;2.72;;
66272;SDS011;58450;52.150;4.466;2023-06-24T03:46:18;4.32;;;2.40;;
66272;SDS011;58450;52.150;4.466;2023-06-24T03:48:46;4.55;;;2.80;;
66272;SDS011;58450;52.150;4.466;2023-06-24T03:51:14;3.97;;;2.60;;
66272;SDS011;58450;52.150;4.466;2023-06-24T03:53:41;7.30;;;3.00;;
66272;SDS011;58450;52.150;4.466;2023-06-24T03:56:09;4.22;;;2.60;;
66272;SDS011;58450;52.150;4.466;2023-06-24T03:58:38;3.95;;;2.60;;
66272;SDS011;58450;52.150;4.466;2023-06-24T04:01:05;5.70;;;3.03;;
66272;SDS011;58450;52.150;4.466;2023-06-24T04:03:35;5.90;;;2.85;;
66272;SDS011;58450;52.150;4.466;2023-06-24T04:06:02;5.68;;;3.00;;
66272;SDS011;58450;52.150;4.466;2023-06-24T04:08:30;4.95;;;2.80;;
66272;SDS011;58450;52.150;4.466;2023-06-24T04:10:58;4.00;;;2.50;;
66272;SDS011;58450;52.150;4.466;2023-06-24T04:13:26;5.38;;;2.83;;
66272;SDS011;58450;52.150;4.466;2023-06-24T04:15:55;4.63;;;2.55;;
66272;SDS011;58450;52.150;4.466;2023-06-24T04:18:22;6.05;;;3.38;;
66272;SDS011;58450;52.150;4.466;2023-06-24T04:20:50;4.85;;;2.90;;
66272;SDS011;58450;52.150;4.466;2023-06-24T04:23:18;5.65;;;3.05;;
66272;SDS011;58450;52.150;4.466;2023-06-24T04:25:45;4.45;;;2.97;;
66272;SDS011;58450;52.150;4.466;2023-06-24T04:28:13;4.32;;;2.60;;
66272;SDS011;58450;52.150;4.466;2023-06-24T04:30:41;5.93;;;2.72;;
66272;SDS011;58450;52.150;4.466;2023-06-24T04:33:10;5.22;;;3.10;;
66272;SDS011;58450;52.150;4.466;2023-06-24T04:35:37;6.50;;;3.25;;
66272;SDS011;58450;52.150;4.466;2023-06-24T04:38:05;5.30;;;3.20;;
66272;SDS011;58450;52.150;4.466;2023-06-24T04:40:32;7.00;;;3.08;;
66272;SDS011;58450;52.150;4.466;2023-06-24T04:43:00;5.55;;;3.13;;
66272;SDS011;58450;52.150;4.466;2023-06-24T04:45:28;8.00;;;4.13;;
66272;SDS011;58450;52.150;4.466;2023-06-24T04:47:56;6.90;;;3.58;;
66272;SDS011;58450;52.150;4.466;2023-06-24T04:50:25;8.40;;;4.07;;
66272;SDS011;58450;52.150;4.466;2023-06-24T04:52:52;6.55;;;3.67;;
66272;SDS011;58450;52.150;4.466;2023-06-24T04:55:23;5.70;;;3.60;;
66272;SDS011;58450;52.150;4.466;2023-06-24T04:57:51;7.40;;;4.18;;
66272;SDS011;58450;52.150;4.466;2023-06-24T05:00:18;7.68;;;4.13;;
66272;SDS011;58450;52.150;4.466;2023-06-24T05:02:48;6.40;;;3.90;;
66272;SDS011;58450;52.150;4.466;2023-06-24T05:05:16;7.57;;;4.32;;
66272;SDS011;58450;52.150;4.466;2023-06-24T05:07:46;8.38;;;4.00;;
66272;SDS011;58450;52.150;4.466;2023-06-24T05:10:13;6.43;;;4.30;;
66272;SDS011;58450;52.150;4.466;2023-06-24T05:12:41;6.40;;;3.90;;
66272;SDS011;58450;52.150;4.466;2023-06-24T05:15:09;8.65;;;4.70;;
66272;SDS011;58450;52.150;4.466;2023-06-24T05:17:37;6.80;;;4.20;;
66272;SDS011;58450;52.150;4.466;2023-06-24T05:20:07;7.18;;;4.25;;
66272;SDS011;58450;52.150;4.466;2023-06-24T05:22:35;6.80;;;4.13;;
66272;SDS011;58450;52.150;4.466;2023-06-24T05:25:05;7.93;;;3.72;;
66272;SDS011;58450;52.150;4.466;2023-06-24T05:27:33;6.30;;;4.00;;
66272;SDS011;58450;52.150;4.466;2023-06-24T05:30:01;7.25;;;3.55;;
66272;SDS011;58450;52.150;4.466;2023-06-24T05:32:28;5.75;;;3.50;;
66272;SDS011;58450;52.150;4.466;2023-06-24T05:34:56;8.50;;;4.50;;
66272;SDS011;58450;52.150;4.466;2023-06-24T05:37:23;7.75;;;4.38;;
66272;SDS011;58450;52.150;4.466;2023-06-24T05:39:51;10.35;;;4.78;;
66272;SDS011;58450;52.150;4.466;2023-06-24T05:42:20;8.95;;;4.38;;
66272;SDS011;58450;52.150;4.466;2023-06-24T05:44:48;7.78;;;4.22;;
66272;SDS011;58450;52.150;4.466;2023-06-24T05:47:16;7.20;;;4.10;;
66272;SDS011;58450;52.150;4.466;2023-06-24T05:49:43;8.70;;;4.38;;
66272;SDS011;58450;52.150;4.466;2023-06-24T05:52:11;8.43;;;4.40;;
66272;SDS011;58450;52.150;4.466;2023-06-24T05:54:39;7.30;;;3.90;;
66272;SDS011;58450;52.150;4.466;2023-06-24T05:57:06;6.78;;;4.15;;
66272;SDS011;58450;52.150;4.466;2023-06-24T05:59:37;8.20;;;4.00;;
66272;SDS011;58450;52.150;4.466;2023-06-24T06:02:05;7.28;;;4.22;;
66272;SDS011;58450;52.150;4.466;2023-06-24T06:04:32;7.25;;;4.25;;
66272;SDS011;58450;52.150;4.466;2023-06-24T06:07:00;7.63;;;4.70;;
66272;SDS011;58450;52.150;4.466;2023-06-24T06:09:27;7.05;;;3.88;;
66272;SDS011;58450;52.150;4.466;2023-06-24T06:11:55;7.10;;;4.03;;
66272;SDS011;58450;52.150;4.466;2023-06-24T06:14:23;7.78;;;4.15;;
66272;SDS011;58450;52.150;4.466;2023-06-24T06:16:52;8.13;;;4.68;;
66272;SDS011;58450;52.150;4.466;2023-06-24T06:19:19;7.05;;;3.83;;
66272;SDS011;58450;52.150;4.466;2023-06-24T06:21:47;7.32;;;3.83;;
66272;SDS011;58450;52.150;4.466;2023-06-24T06:24:16;6.80;;;4.07;;
66272;SDS011;58450;52.150;4.466;2023-06-24T06:26:44;8.88;;;4.53;;
66272;SDS011;58450;52.150;4.466;2023-06-24T06:29:11;8.48;;;4.22;;
66272;SDS011;58450;52.150;4.466;2023-06-24T06:31:39;8.68;;;4.40;;
66272;SDS011;58450;52.150;4.466;2023-06-24T06:34:08;7.35;;;4.28;;
66272;SDS011;58450;52.150;4.466;2023-06-24T06:36:35;8.60;;;4.55;;
66272;SDS011;58450;52.150;4.466;2023-06-24T06:39:03;7.63;;;4.38;;
66272;SDS011;58450;52.150;4.466;2023-06-24T06:41:31;8.32;;;4.25;;
66272;SDS011;58450;52.150;4.466;2023-06-24T06:43:58;6.45;;;3.72;;
66272;SDS011;58450;52.150;4.466;2023-06-24T06:46:26;7.22;;;3.90;;
66272;SDS011;58450;52.150;4.466;2023-06-24T06:48:54;8.13;;;4.20;;
66272;SDS011;58450;52.150;4.466;2023-06-24T06:51:23;7.97;;;4.18;;
66272;SDS011;58450;52.150;4.466;2023-06-24T06:53:51;6.85;;;4.57;;
66272;SDS011;58450;52.150;4.466;2023-06-24T06:56:21;7.53;;;4.20;;
66272;SDS011;58450;52.150;4.466;2023-06-24T06:58:50;7.43;;;4.18;;
66272;SDS011;58450;52.150;4.466;2023-06-24T07:01:18;8.18;;;4.15;;
66272;SDS011;58450;52.150;4.466;2023-06-24T07:03:46;7.65;;;3.88;;
66272;SDS011;58450;52.150;4.466;2023-06-24T07:06:17;6.82;;;3.92;;
66272;SDS011;58450;52.150;4.466;2023-06-24T07:08:46;6.28;;;3.70;;
66272;SDS011;58450;52.150;4.466;2023-06-24T07:11:14;6.47;;;3.60;;
66272;SDS011;58450;52.150;4.466;2023-06-24T07:13:42;6.35;;;3.63;;
66272;SDS011;58450;52.150;4.466;2023-06-24T07:16:10;6.18;;;3.25;;
66272;SDS011;58450;52.150;4.466;2023-06-24T07:18:38;5.82;;;3.35;;
66272;SDS011;58450;52.150;4.466;2023-06-24T07:21:05;4.28;;;3.13;;
66272;SDS011;58450;52.150;4.466;2023-06-24T07:23:33;6.80;;;3.97;;
66272;SDS011;58450;52.150;4.466;2023-06-24T07:26:02;4.68;;;3.10;;
66272;SDS011;58450;52.150;4.466;2023-06-24T07:28:30;5.65;;;3.28;;
66272;SDS011;58450;52.150;4.466;2023-06-24T07:30:57;6.30;;;3.60;;
66272;SDS011;58450;52.150;4.466;2023-06-24T07:33:25;6.95;;;3.35;;
66272;SDS011;58450;52.150;4.466;2023-06-24T07:35:52;6.22;;;3.40;;
66272;SDS011;58450;52.150;4.466;2023-06-24T07:38:20;5.63;;;3.17;;
66272;SDS011;58450;52.150;4.466;2023-06-24T07:40:48;5.72;;;3.25;;
66272;SDS011;58450;52.150;4.466;2023-06-24T07:43:17;5.90;;;3.55;;
66272;SDS011;58450;52.150;4.466;2023-06-24T07:45:44;7.03;;;3.60;;
66272;SDS011;58450;52.150;4.466;2023-06-24T07:48:12;6.18;;;3.33;;
66272;SDS011;58450;52.150;4.466;2023-06-24T07:50:40;6.68;;;3.63;;
66272;SDS011;58450;52.150;4.466;2023-06-24T07:53:07;4.90;;;3.15;;
66272;SDS011;58450;52.150;4.466;2023-06-24T07:55:35;4.38;;;2.83;;
66272;SDS011;58450;52.150;4.466;2023-06-24T07:58:03;5.85;;;3.75;;
66272;SDS011;58450;52.150;4.466;2023-06-24T08:00:32;6.75;;;3.92;;
66272;SDS011;58450;52.150;4.466;2023-06-24T08:03:00;6.50;;;3.42;;
66272;SDS011;58450;52.150;4.466;2023-06-24T08:05:28;5.72;;;3.55;;
66272;SDS011;58450;52.150;4.466;2023-06-24T08:07:55;6.85;;;3.45;;
66272;SDS011;58450;52.150;4.466;2023-06-24T08:10:23;7.63;;;3.53;;
66272;SDS011;58450;52.150;4.466;2023-06-24T08:12:51;7.72;;;3.38;;
66272;SDS011;58450;52.150;4.466;2023-06-24T08:15:19;8.50;;;4.47;;
66272;SDS011;58450;52.150;4.466;2023-06-24T08:17:51;7.72;;;3.63;;
66272;SDS011;58450;52.150;4.466;2023-06-24T08:20:19;8.30;;;4.35;;
66272;SDS011;58450;52.150;4.466;2023-06-24T08:22:47;7.30;;;3.60;;
66272;SDS011;58450;52.150;4.466;2023-06-24T08:25:15;5.50;;;3.58;;
66272;SDS011;58450;52.150;4.466;2023-06-24T08:27:42;7.40;;;4.20;;
66272;SDS011;58450;52.150;4.466;2023-06-24T08:30:12;7.43;;;3.30;;
66272;SDS011;58450;52.150;4.466;2023-06-24T08:32:41;8.60;;;4.40;;
66272;SDS011;58450;52.150;4.466;2023-06-24T08:35:10;7.30;;;4.63;;
66272;SDS011;58450;52.150;4.466;2023-06-24T08:37:38;7.15;;;4.40;;
66272;SDS011;58450;52.150;4.466;2023-06-24T08:40:06;6.85;;;3.40;;
66272;SDS011;58450;52.150;4.466;2023-06-24T08:42:35;5.47;;;3.47;;
66272;SDS011;58450;52.150;4.466;2023-06-24T08:45:03;8.45;;;3.88;;
66272;SDS011;58450;52.150;4.466;2023-06-24T08:47:31;8.68;;;4.20;;
66272;SDS011;58450;52.150;4.466;2023-06-24T08:50:01;6.50;;;3.60;;
66272;SDS011;58450;52.150;4.466;2023-06-24T08:52:34;6.90;;;3.72;;
66272;SDS011;58450;52.150;4.466;2023-06-24T08:55:05;7.82;;;4.00;;
66272;SDS011;58450;52.150;4.466;2023-06-24T08:57:39;6.28;;;3.50;;
66272;SDS011;58450;52.150;4.466;2023-06-24T09:00:07;6.57;;;3.40;;
66272;SDS011;58450;52.150;4.466;2023-06-24T09:02:36;6.32;;;3.53;;
66272;SDS011;58450;52.150;4.466;2023-06-24T09:05:05;6.70;;;3.47;;
66272;SDS011;58450;52.150;4.466;2023-06-24T09:07:36;5.35;;;3.13;;
66272;SDS011;58450;52.150;4.466;2023-06-24T09:10:04;7.28;;;3.83;;
66272;SDS011;58450;52.150;4.466;2023-06-24T09:12:33;6.57;;;3.50;;
66272;SDS011;58450;52.150;4.466;2023-06-24T09:15:02;8.23;;;3.80;;
66272;SDS011;58450;52.150;4.466;2023-06-24T09:17:31;8.18;;;3.60;;
66272;SDS011;58450;52.150;4.466;2023-06-24T09:20:02;5.97;;;3.45;;
66272;SDS011;58450;52.150;4.466;2023-06-24T09:22:31;8.13;;;3.33;;
66272;SDS011;58450;52.150;4.466;2023-06-24T09:25:01;7.00;;;3.80;;
66272;SDS011;58450;52.150;4.466;2023-06-24T09:27:30;6.68;;;3.40;;
66272;SDS011;58450;52.150;4.466;2023-06-24T09:29:59;6.35;;;3.20;;
66272;SDS011;58450;52.150;4.466;2023-06-24T09:32:28;7.00;;;3.25;;
66272;SDS011;58450;52.150;4.466;2023-06-24T09:34:57;6.05;;;3.60;;
66272;SDS011;58450;52.150;4.466;2023-06-24T09:37:25;6.20;;;3.15;;
66272;SDS011;58450;52.150;4.466;2023-06-24T09:39:56;6.13;;;3.30;;
66272;SDS011;58450;52.150;4.466;2023-06-24T09:42:25;7.07;;;3.50;;
66272;SDS011;58450;52.150;4.466;2023-06-24T09:44:53;5.78;;;2.95;;
66272;SDS011;58450;52.150;4.466;2023-06-24T09:47:21;8.25;;;3.95;;
66272;SDS011;58450;52.150;4.466;2023-06-24T09:49:51;5.85;;;3.42;;
66272;SDS011;58450;52.150;4.466;2023-06-24T09:52:19;5.38;;;2.63;;
66272;SDS011;58450;52.150;4.466;2023-06-24T09:54:49;4.65;;;2.85;;
66272;SDS011;58450;52.150;4.466;2023-06-24T09:57:20;6.18;;;3.33;;
66272;SDS011;58450;52.150;4.466;2023-06-24T09:59:56;7.55;;;3.22;;
66272;SDS011;58450;52.150;4.466;2023-06-24T10:02:24;6.22;;;2.92;;
66272;SDS011;58450;52.150;4.466;2023-06-24T10:04:53;7.03;;;3.53;;
66272;SDS011;58450;52.150;4.466;2023-06-24T10:07:21;5.15;;;3.10;;
66272;SDS011;58450;52.150;4.466;2023-06-24T10:09:49;5.78;;;3.30;;
66272;SDS011;58450;52.150;4.466;2023-06-24T10:12:17;5.93;;;2.88;;
66272;SDS011;58450;52.150;4.466;2023-06-24T10:14:47;5.55;;;2.83;;
66272;SDS011;58450;52.150;4.466;2023-06-24T10:17:15;6.15;;;2.75;;
66272;SDS011;58450;52.150;4.466;2023-06-24T10:19:42;9.13;;;3.17;;
66272;SDS011;58450;52.150;4.466;2023-06-24T10:22:11;7.95;;;3.28;;
66272;SDS011;58450;52.150;4.466;2023-06-24T10:24:40;4.88;;;3.05;;
66272;SDS011;58450;52.150;4.466;2023-06-24T10:27:13;7.50;;;3.20;;
66272;SDS011;58450;52.150;4.466;2023-06-24T10:29:44;6.90;;;3.13;;
66272;SDS011;58450;52.150;4.466;2023-06-24T10:32:15;6.95;;;3.10;;
66272;SDS011;58450;52.150;4.466;2023-06-24T10:34:44;5.93;;;2.85;;
66272;SDS011;58450;52.150;4.466;2023-06-24T10:37:14;9.80;;;4.25;;
66272;SDS011;58450;52.150;4.466;2023-06-24T10:39:48;6.97;;;3.38;;
66272;SDS011;58450;52.150;4.466;2023-06-24T10:42:28;7.32;;;3.40;;
66272;SDS011;58450;52.150;4.466;2023-06-24T10:45:14;7.20;;;3.28;;
66272;SDS011;58450;52.150;4.466;2023-06-24T10:47:45;6.60;;;3.40;;
66272;SDS011;58450;52.150;4.466;2023-06-24T10:50:15;8.65;;;3.42;;
66272;SDS011;58450;52.150;4.466;2023-06-24T10:52:46;5.68;;;3.00;;
66272;SDS011;58450;52.150;4.466;2023-06-24T10:55:16;6.88;;;2.72;;
66272;SDS011;58450;52.150;4.466;2023-06-24T10:57:45;7.93;;;3.20;;
66272;SDS011;58450;52.150;4.466;2023-06-24T11:00:15;6.82;;;3.00;;
66272;SDS011;58450;52.150;4.466;2023-06-24T11:02:43;5.75;;;3.15;;
66272;SDS011;58450;52.150;4.466;2023-06-24T11:05:11;6.93;;;3.22;;
66272;SDS011;58450;52.150;4.466;2023-06-24T11:07:39;5.30;;;2.90;;
66272;SDS011;58450;52.150;4.466;2023-06-24T11:10:07;4.90;;;2.78;;
66272;SDS011;58450;52.150;4.466;2023-06-24T11:12:38;6.75;;;3.22;;
66272;SDS011;58450;52.150;4.466;2023-06-24T11:15:08;7.82;;;3.22;;
66272;SDS011;58450;52.150;4.466;2023-06-24T11:17:39;8.15;;;3.63;;
66272;SDS011;58450;52.150;4.466;2023-06-24T11:20:08;6.57;;;3.05;;
66272;SDS011;58450;52.150;4.466;2023-06-24T11:22:37;7.47;;;3.35;;
66272;SDS011;58450;52.150;4.466;2023-06-24T11:25:13;6.15;;;3.60;;
66272;SDS011;58450;52.150;4.466;2023-06-24T11:27:42;8.93;;;3.67;;
66272;SDS011;58450;52.150;4.466;2023-06-24T11:30:11;6.82;;;3.72;;
66272;SDS011;58450;52.150;4.466;2023-06-24T11:32:42;7.60;;;3.60;;
66272;SDS011;58450;52.150;4.466;2023-06-24T11:35:11;7.47;;;3.85;;
66272;SDS011;58450;52.150;4.466;2023-06-24T11:37:41;7.45;;;3.67;;
66272;SDS011;58450;52.150;4.466;2023-06-24T11:40:10;6.60;;;3.20;;
66272;SDS011;58450;52.150;4.466;2023-06-24T11:42:42;7.22;;;3.80;;
66272;SDS011;58450;52.150;4.466;2023-06-24T11:45:11;8.55;;;3.90;;
66272;SDS011;58450;52.150;4.466;2023-06-24T11:47:42;7.47;;;3.80;;
66272;SDS011;58450;52.150;4.466;2023-06-24T11:50:10;8.73;;;4.22;;
66272;SDS011;58450;52.150;4.466;2023-06-24T11:52:38;8.63;;;4.40;;
66272;SDS011;58450;52.150;4.466;2023-06-24T11:55:12;5.93;;;3.55;;
66272;SDS011;58450;52.150;4.466;2023-06-24T11:57:46;6.32;;;3.45;;
66272;SDS011;58450;52.150;4.466;2023-06-24T12:00:22;7.60;;;4.20;;
66272;SDS011;58450;52.150;4.466;2023-06-24T12:02:53;7.10;;;4.38;;
66272;SDS011;58450;52.150;4.466;2023-06-24T12:05:23;8.15;;;4.57;;
66272;SDS011;58450;52.150;4.466;2023-06-24T12:07:54;8.18;;;3.88;;
66272;SDS011;58450;52.150;4.466;2023-06-24T12:10:27;10.60;;;4.85;;
66272;SDS011;58450;52.150;4.466;2023-06-24T12:12:56;7.47;;;4.15;;
66272;SDS011;58450;52.150;4.466;2023-06-24T12:15:24;7.60;;;4.22;;
66272;SDS011;58450;52.150;4.466;2023-06-24T12:17:54;7.95;;;4.30;;
66272;SDS011;58450;52.150;4.466;2023-06-24T12:20:22;6.25;;;3.88;;
66272;SDS011;58450;52.150;4.466;2023-06-24T12:22:51;8.98;;;4.43;;
66272;SDS011;58450;52.150;4.466;2023-06-24T12:25:19;6.72;;;3.80;;
66272;SDS011;58450;52.150;4.466;2023-06-24T12:27:47;7.15;;;4.38;;
66272;SDS011;58450;52.150;4.466;2023-06-24T12:30:14;8.05;;;4.60;;
66272;SDS011;58450;52.150;4.466;2023-06-24T12:32:43;7.55;;;4.97;;
66272;SDS011;58450;52.150;4.466;2023-06-24T12:35:12;8.95;;;4.50;;
66272;SDS011;58450;52.150;4.466;2023-06-24T12:37:40;9.02;;;4.93;;
66272;SDS011;58450;52.150;4.466;2023-06-24T12:40:08;9.98;;;4.65;;
66272;SDS011;58450;52.150;4.466;2023-06-24T12:42:36;8.57;;;4.60;;
66272;SDS011;58450;52.150;4.466;2023-06-24T12:45:04;6.13;;;4.25;;
66272;SDS011;58450;52.150;4.466;2023-06-24T12:47:32;6.90;;;4.47;;
66272;SDS011;58450;52.150;4.466;2023-06-24T12:50:00;6.88;;;4.60;;
66272;SDS011;58450;52.150;4.466;2023-06-24T12:52:33;7.05;;;4.50;;
66272;SDS011;58450;52.150;4.466;2023-06-24T12:55:01;6.70;;;4.25;;
66272;SDS011;58450;52.150;4.466;2023-06-24T12:57:29;6.55;;;3.75;;
66272;SDS011;58450;52.150;4.466;2023-06-24T12:59:57;8.27;;;4.38;;
66272;SDS011;58450;52.150;4.466;2023-06-24T13:02:24;7.88;;;4.28;;
66272;SDS011;58450;52.150;4.466;2023-06-24T13:04:52;7.70;;;4.13;;
66272;SDS011;58450;52.150;4.466;2023-06-24T13:07:20;7.45;;;4.93;;
66272;SDS011;58450;52.150;4.466;2023-06-24T13:09:48;7.88;;;4.85;;
66272;SDS011;58450;52.150;4.466;2023-06-24T13:12:16;7.47;;;4.90;;
66272;SDS011;58450;52.150;4.466;2023-06-24T13:14:44;7.85;;;5.13;;
66272;SDS011;58450;52.150;4.466;2023-06-24T13:17:11;7.22;;;5.20;;
66272;SDS011;58450;52.150;4.466;2023-06-24T13:19:39;10.02;;;5.40;;
66272;SDS011;58450;52.150;4.466;2023-06-24T13:22:06;9.77;;;4.93;;
66272;SDS011;58450;52.150;4.466;2023-06-24T13:24:34;7.97;;;4.68;;
66272;SDS011;58450;52.150;4.466;2023-06-24T13:27:03;7.10;;;4.90;;
66272;SDS011;58450;52.150;4.466;2023-06-24T13:29:31;9.57;;;5.57;;
66272;SDS011;58450;52.150;4.466;2023-06-24T13:31:59;9.48;;;5.35;;
66272;SDS011;58450;52.150;4.466;2023-06-24T13:34:26;8.07;;;5.20;;
66272;SDS011;58450;52.150;4.466;2023-06-24T13:36:54;7.53;;;5.63;;
66272;SDS011;58450;52.150;4.466;2023-06-24T13:39:21;8.68;;;5.50;;
66272;SDS011;58450;52.150;4.466;2023-06-24T13:41:49;8.05;;;5.07;;
66272;SDS011;58450;52.150;4.466;2023-06-24T13:44:19;8.52;;;5.45;;
66272;SDS011;58450;52.150;4.466;2023-06-24T13:46:47;7.72;;;5.45;;
66272;SDS011;58450;52.150;4.466;2023-06-24T13:49:15;9.05;;;6.00;;
66272;SDS011;58450;52.150;4.466;2023-06-24T13:51:44;8.10;;;6.05;;
66272;SDS011;58450;52.150;4.466;2023-06-24T13:54:11;8.85;;;6.80;;
66272;SDS011;58450;52.150;4.466;2023-06-24T13:56:39;9.00;;;6.15;;
66272;SDS011;58450;52.150;4.466;2023-06-24T13:59:07;9.18;;;7.32;;
66272;SDS011;58450;52.150;4.466;2023-06-24T14:01:37;9.55;;;6.97;;
66272;SDS011;58450;52.150;4.466;2023-06-24T14:04:05;8.35;;;6.45;;
66272;SDS011;58450;52.150;4.466;2023-06-24T14:06:32;8.88;;;6.82;;
66272;SDS011;58450;52.150;4.466;2023-06-24T14:09:00;11.80;;;8.13;;
66272;SDS011;58450;52.150;4.466;2023-06-24T14:11:28;8.95;;;7.00;;
66272;SDS011;58450;52.150;4.466;2023-06-24T14:13:55;13.98;;;10.10;;
66272;SDS011;58450;52.150;4.466;2023-06-24T14:16:23;11.25;;;8.60;;
66272;SDS011;58450;52.150;4.466;2023-06-24T14:18:52;10.73;;;8.50;;
66272;SDS011;58450;52.150;4.466;2023-06-24T14:21:19;12.20;;;8.50;;
66272;SDS011;58450;52.150;4.466;2023-06-24T14:23:47;10.30;;;8.18;;
66272;SDS011;58450;52.150;4.466;2023-06-24T14:26:15;12.55;;;8.45;;
66272;SDS011;58450;52.150;4.466;2023-06-24T14:28:42;10.80;;;8.02;;
66272;SDS011;58450;52.150;4.466;2023-06-24T14:31:11;10.77;;;8.00;;
66272;SDS011;58450;52.150;4.466;2023-06-24T14:33:38;11.38;;;8.65;;
66272;SDS011;58450;52.150;4.466;2023-06-24T14:36:08;12.77;;;9.60;;
66272;SDS011;58450;52.150;4.466;2023-06-24T14:38:36;11.90;;;8.80;;
66272;SDS011;58450;52.150;4.466;2023-06-24T14:41:03;11.52;;;8.60;;
66272;SDS011;58450;52.150;4.466;2023-06-24T14:43:33;11.32;;;8.13;;
66272;SDS011;58450;52.150;4.466;2023-06-24T14:46:01;11.10;;;8.15;;
66272;SDS011;58450;52.150;4.466;2023-06-24T14:48:28;11.38;;;8.43;;
66272;SDS011;58450;52.150;4.466;2023-06-24T14:50:56;11.70;;;8.55;;
66272;SDS011;58450;52.150;4.466;2023-06-24T14:53:25;10.30;;;7.65;;
66272;SDS011;58450;52.150;4.466;2023-06-24T14:55:52;12.13;;;8.27;;
66272;SDS011;58450;52.150;4.466;2023-06-24T14:58:20;11.43;;;8.73;;
66272;SDS011;58450;52.150;4.466;2023-06-24T15:00:47;13.00;;;8.25;;